Time;durP1;ratioP1;P1;durP2;ratioP2;P2;SDS_P1;SDS_P2;PMS_P1;PMS_P2;Temp;Humidity;BMP_temperature;BMP_pressure;BME280_temperature;BME280_humidity;BME280_pressure;Samples;Min_cycle;Max_cycle;Signal;HPM_P1;HPM_P2
2021/11/27 00:00:01;;;;;;;197.10;41.20;;;;;;;;;;5109153;27;20489;-63
2021/11/27 00:02:27;;;;;;;177.93;40.53;;;;;;;;;;5103762;28;20402;-62
2021/11/27 00:04:53;;;;;;;188.48;40.30;;;;;;;;;;5106055;28;20050;-63
2021/11/27 00:07:19;;;;;;;152.20;35.13;;;;;;;;;;5109067;28;20075;-63
2021/11/27 00:09:46;;;;;;;158.77;39.10;;;;;;;;;;5110958;28;20059;-62
2021/11/27 00:12:12;;;;;;;154.88;37.83;;;;;;;;;;5104425;27;20036;-63
2021/11/27 00:14:38;;;;;;;196.70;38.15;;;;;;;;;;5095376;27;20047;-62
2021/11/27 00:17:04;;;;;;;161.40;38.20;;;;;;;;;;5111440;27;20200;-62
2021/11/27 00:19:31;;;;;;;155.55;37.33;;;;;;;;;;5123011;27;20083;-62
2021/11/27 00:21:57;;;;;;;157.98;37.25;;;;;;;;;;5118362;27;20397;-63
2021/11/27 00:24:23;;;;;;;170.90;40.65;;;;;;;;;;5122093;27;20593;-63
2021/11/27 00:26:49;;;;;;;164.48;37.80;;;;;;;;;;5101919;27;20479;-62
2021/11/27 00:29:16;;;;;;;173.25;40.42;;;;;;;;;;5111154;27;20161;-62
2021/11/27 00:31:42;;;;;;;168.70;41.30;;;;;;;;;;5109293;27;20135;-62
2021/11/27 00:34:10;;;;;;;169.85;41.30;;;;;;;;;;5112830;27;20152;-62
2021/11/27 00:36:36;;;;;;;179.38;42.60;;;;;;;;;;5113208;27;20184;-62
2021/11/27 00:39:05;;;;;;;163.32;43.85;;;;;;;;;;5113241;27;20039;-62
2021/11/27 00:41:31;;;;;;;164.20;43.38;;;;;;;;;;5108807;27;20043;-62
2021/11/27 00:43:57;;;;;;;170.48;40.25;;;;;;;;;;5101130;27;20055;-62
2021/11/27 00:46:23;;;;;;;158.63;39.65;;;;;;;;;;5100091;27;20318;-62
2021/11/27 00:48:50;;;;;;;154.20;36.42;;;;;;;;;;5111913;27;20067;-62
2021/11/27 00:51:18;;;;;;;157.45;36.60;;;;;;;;;;5111433;27;20046;-62
2021/11/27 00:53:45;;;;;;;146.60;36.03;;;;;;;;;;5110039;27;20513;-62
2021/11/27 00:56:14;;;;;;;124.63;34.63;;;;;;;;;;5093462;27;20032;-62
2021/11/27 00:58:40;;;;;;;115.88;33.35;;;;;;;;;;5111369;27;20436;-62
2021/11/27 01:01:09;;;;;;;153.50;38.58;;;;;;;;;;5111305;27;20067;-62
2021/11/27 01:03:36;;;;;;;144.27;37.08;;;;;;;;;;5119474;27;20056;-62
2021/11/27 01:06:05;;;;;;;142.85;36.75;;;;;;;;;;5116190;27;20163;-62
2021/11/27 01:08:31;;;;;;;109.13;34.10;;;;;;;;;;5091123;28;20164;-62
2021/11/27 01:11:03;;;;;;;174.35;40.83;;;;;;;;;;5091246;27;20058;-62
2021/11/27 01:13:30;;;;;;;154.80;38.28;;;;;;;;;;5122429;27;20043;-62
2021/11/27 01:15:56;;;;;;;190.70;41.08;;;;;;;;;;5112982;27;20051;-62
2021/11/27 01:18:22;;;;;;;159.35;39.63;;;;;;;;;;5102184;27;20130;-62
2021/11/27 01:20:53;;;;;;;182.57;39.80;;;;;;;;;;5116176;27;20051;-62
2021/11/27 01:23:20;;;;;;;133.88;35.47;;;;;;;;;;5115721;27;20384;-62
2021/11/27 01:25:46;;;;;;;121.93;35.42;;;;;;;;;;5114982;27;20395;-63
2021/11/27 01:28:15;;;;;;;172.18;38.72;;;;;;;;;;5115281;27;20054;-62
2021/11/27 01:30:43;;;;;;;141.45;36.20;;;;;;;;;;5112635;27;20082;-63
2021/11/27 01:33:09;;;;;;;109.07;34.17;;;;;;;;;;5102999;28;20044;-63
2021/11/27 01:35:35;;;;;;;135.45;34.72;;;;;;;;;;5108723;28;20032;-63
2021/11/27 01:38:01;;;;;;;128.00;33.75;;;;;;;;;;5086781;28;20457;-62
2021/11/27 01:40:28;;;;;;;147.73;35.25;;;;;;;;;;5094960;28;20036;-62
2021/11/27 01:42:54;;;;;;;154.57;35.83;;;;;;;;;;5118181;28;20078;-62
2021/11/27 01:45:21;;;;;;;173.13;37.45;;;;;;;;;;5116738;28;20031;-62
2021/11/27 01:47:51;;;;;;;164.93;38.72;;;;;;;;;;5085697;28;20126;-62
2021/11/27 01:50:17;;;;;;;184.13;36.78;;;;;;;;;;5095871;28;20040;-62
2021/11/27 01:52:43;;;;;;;150.30;35.78;;;;;;;;;;5116449;28;20165;-62
2021/11/27 01:55:10;;;;;;;155.82;34.65;;;;;;;;;;5095217;28;20503;-62
2021/11/27 01:57:36;;;;;;;153.00;35.47;;;;;;;;;;5112000;28;20039;-62
2021/11/27 02:00:04;;;;;;;164.32;36.00;;;;;;;;;;5094695;28;20047;-62
2021/11/27 02:02:31;;;;;;;179.80;36.00;;;;;;;;;;5106366;28;20051;-63
2021/11/27 02:04:57;;;;;;;207.85;37.50;;;;;;;;;;5083726;28;20118;-62
2021/11/27 02:07:23;;;;;;;168.95;32.58;;;;;;;;;;5081407;28;20135;-62
2021/11/27 02:09:49;;;;;;;180.82;33.22;;;;;;;;;;5099353;28;20044;-62
2021/11/27 02:12:16;;;;;;;241.27;35.28;;;;;;;;;;5107474;28;20050;-62
2021/11/27 02:14:42;;;;;;;123.30;29.15;;;;;;;;;;5114898;28;20114;-62
2021/11/27 02:17:10;;;;;;;314.13;36.17;;;;;;;;;;5093236;28;20047;-63
2021/11/27 02:19:36;;;;;;;181.93;31.33;;;;;;;;;;5111100;28;20075;-62
2021/11/27 02:22:03;;;;;;;222.48;34.00;;;;;;;;;;5105306;28;20044;-62
2021/11/27 02:24:30;;;;;;;195.98;32.33;;;;;;;;;;5110687;28;20407;-62
2021/11/27 02:26:56;;;;;;;120.78;26.52;;;;;;;;;;5087896;28;20109;-62
2021/11/27 02:29:24;;;;;;;192.82;29.48;;;;;;;;;;5110817;28;20126;-62
2021/11/27 02:31:51;;;;;;;92.50;24.98;;;;;;;;;;5108035;28;20128;-63
2021/11/27 02:34:17;;;;;;;110.70;24.27;;;;;;;;;;5111422;28;20044;-62
2021/11/27 02:36:46;;;;;;;73.05;21.75;;;;;;;;;;5112443;28;20469;-63
2021/11/27 02:39:13;;;;;;;97.75;24.15;;;;;;;;;;5114135;28;20054;-63
2021/11/27 02:41:39;;;;;;;130.52;24.33;;;;;;;;;;5088489;27;20044;-62
2021/11/27 02:44:08;;;;;;;119.28;22.55;;;;;;;;;;5113801;27;20048;-62
2021/11/27 02:46:34;;;;;;;81.80;19.95;;;;;;;;;;5112698;27;20047;-63
2021/11/27 02:49:01;;;;;;;101.38;22.05;;;;;;;;;;5113901;27;20035;-63
2021/11/27 02:51:27;;;;;;;60.67;19.27;;;;;;;;;;5114671;27;20040;-62
2021/11/27 02:53:53;;;;;;;175.40;18.38;;;;;;;;;;5124075;27;20143;-63
2021/11/27 02:56:19;;;;;;;198.00;21.67;;;;;;;;;;5122778;27;20040;-63
2021/11/27 02:58:45;;;;;;;322.92;28.33;;;;;;;;;;5106778;28;20206;-63
2021/11/27 03:01:12;;;;;;;388.98;31.17;;;;;;;;;;5076226;28;20043;-62
2021/11/27 03:03:39;;;;;;;131.40;19.73;;;;;;;;;;5109479;27;20123;-62
2021/11/27 03:06:06;;;;;;;108.05;21.98;;;;;;;;;;5113265;27;20066;-62
2021/11/27 03:08:32;;;;;;;115.88;21.40;;;;;;;;;;5108434;27;20168;-62
2021/11/27 03:10:59;;;;;;;84.72;19.73;;;;;;;;;;5106642;27;20131;-62
2021/11/27 03:13:27;;;;;;;64.85;18.88;;;;;;;;;;5111494;27;20047;-62
2021/11/27 03:15:54;;;;;;;82.30;20.08;;;;;;;;;;5116588;27;20054;-62
2021/11/27 03:18:20;;;;;;;94.25;23.88;;;;;;;;;;5119227;27;20181;-62
2021/11/27 03:20:46;;;;;;;46.65;18.35;;;;;;;;;;5115784;27;20031;-62
2021/11/27 03:23:13;;;;;;;128.45;26.58;;;;;;;;;;5104871;27;20044;-62
2021/11/27 03:25:40;;;;;;;99.03;24.25;;;;;;;;;;5106814;27;20043;-62
2021/11/27 03:28:06;;;;;;;114.47;26.58;;;;;;;;;;5097784;27;20048;-62
2021/11/27 03:30:32;;;;;;;167.98;29.92;;;;;;;;;;5108308;27;20130;-62
2021/11/27 03:32:59;;;;;;;170.18;30.23;;;;;;;;;;5098817;27;20050;-62
2021/11/27 03:35:25;;;;;;;102.32;24.33;;;;;;;;;;5117158;27;20073;-62
2021/11/27 03:37:51;;;;;;;134.93;27.25;;;;;;;;;;5099433;27;20134;-62
2021/11/27 03:40:18;;;;;;;193.07;28.77;;;;;;;;;;5107876;27;20039;-62
2021/11/27 03:42:45;;;;;;;330.35;34.25;;;;;;;;;;5111818;27;20047;-62
2021/11/27 03:45:13;;;;;;;272.25;31.67;;;;;;;;;;5124454;27;20118;-62
2021/11/27 03:47:53;;;;;;;164.38;26.77;;;;;;;;;;5123779;27;20038;-62
2021/11/27 03:50:19;;;;;;;264.20;32.58;;;;;;;;;;5123123;27;20043;-62
2021/11/27 03:52:45;;;;;;;86.65;23.40;;;;;;;;;;5109935;27;20036;-62
2021/11/27 03:55:13;;;;;;;232.13;31.65;;;;;;;;;;5112071;27;20069;-62
2021/11/27 03:57:39;;;;;;;275.40;34.80;;;;;;;;;;5105888;27;20040;-62
2021/11/27 04:00:07;;;;;;;107.90;24.70;;;;;;;;;;5115755;27;20067;-62
2021/11/27 04:02:33;;;;;;;80.72;25.20;;;;;;;;;;5117218;27;20078;-62
2021/11/27 04:04:59;;;;;;;79.35;23.58;;;;;;;;;;5117594;27;20113;-62
2021/11/27 04:07:25;;;;;;;112.63;25.95;;;;;;;;;;5118911;27;20050;-63
2021/11/27 04:09:51;;;;;;;119.63;28.98;;;;;;;;;;5101329;27;20068;-62
2021/11/27 04:12:18;;;;;;;129.77;28.67;;;;;;;;;;5101107;27;20491;-62
2021/11/27 04:14:44;;;;;;;155.82;30.45;;;;;;;;;;5104380;27;20097;-63
2021/11/27 04:17:10;;;;;;;186.75;31.40;;;;;;;;;;5105434;27;20050;-62
2021/11/27 04:19:36;;;;;;;104.50;27.70;;;;;;;;;;5113946;27;20092;-62
2021/11/27 04:22:03;;;;;;;108.35;26.50;;;;;;;;;;5094911;27;20082;-62
2021/11/27 04:24:29;;;;;;;157.70;31.02;;;;;;;;;;5112543;27;20048;-62
2021/11/27 04:26:56;;;;;;;114.57;28.13;;;;;;;;;;5115387;27;20096;-63
2021/11/27 04:29:22;;;;;;;252.23;33.90;;;;;;;;;;5111681;27;20123;-62
2021/11/27 04:31:48;;;;;;;154.20;30.02;;;;;;;;;;5102066;27;20040;-62
2021/11/27 04:34:15;;;;;;;153.43;29.15;;;;;;;;;;5110614;27;20050;-62
2021/11/27 04:36:41;;;;;;;146.43;29.52;;;;;;;;;;5111320;27;20043;-62
2021/11/27 04:39:07;;;;;;;133.13;29.10;;;;;;;;;;5110286;27;20043;-62
2021/11/27 04:41:33;;;;;;;120.20;29.15;;;;;;;;;;5110324;27;20082;-63
2021/11/27 04:44:00;;;;;;;133.35;27.77;;;;;;;;;;5108707;27;20408;-62
2021/11/27 04:46:26;;;;;;;134.10;30.13;;;;;;;;;;5109893;27;20069;-62
2021/11/27 04:48:52;;;;;;;134.70;29.48;;;;;;;;;;5111747;27;20056;-62
2021/11/27 04:51:18;;;;;;;136.15;30.60;;;;;;;;;;5111430;27;20027;-62
2021/11/27 04:53:45;;;;;;;143.98;29.92;;;;;;;;;;5112700;27;20039;-62
2021/11/27 04:56:11;;;;;;;126.72;27.67;;;;;;;;;;5115188;27;20054;-62
2021/11/27 04:58:37;;;;;;;138.80;28.58;;;;;;;;;;5103261;27;20444;-62
2021/11/27 05:01:03;;;;;;;150.90;28.95;;;;;;;;;;5102496;28;20044;-62
2021/11/27 05:03:29;;;;;;;147.45;29.67;;;;;;;;;;5100286;27;20065;-62
2021/11/27 05:05:56;;;;;;;149.18;31.58;;;;;;;;;;5102993;27;20060;-62
2021/11/27 05:08:22;;;;;;;157.35;28.45;;;;;;;;;;5099542;27;20071;-62
2021/11/27 05:10:48;;;;;;;119.28;28.55;;;;;;;;;;5112178;27;20094;-62
2021/11/27 05:13:14;;;;;;;196.48;32.72;;;;;;;;;;5104204;27;20051;-62
2021/11/27 05:15:41;;;;;;;152.02;29.88;;;;;;;;;;5103179;27;20040;-63
2021/11/27 05:18:07;;;;;;;138.93;30.45;;;;;;;;;;5100413;27;20050;-62
2021/11/27 05:20:33;;;;;;;137.63;30.15;;;;;;;;;;5104506;27;20086;-62
2021/11/27 05:22:59;;;;;;;188.88;31.98;;;;;;;;;;5113168;27;20035;-62
2021/11/27 05:25:26;;;;;;;121.10;28.85;;;;;;;;;;5110778;27;20066;-63
2021/11/27 05:27:52;;;;;;;153.02;29.52;;;;;;;;;;5116178;27;20490;-62
2021/11/27 05:30:18;;;;;;;148.18;29.70;;;;;;;;;;5117640;27;20039;-62
2021/11/27 05:33:05;;;;;;;148.10;29.75;;;;;;;;;;5111343;27;20039;-62
2021/11/27 05:35:32;;;;;;;178.48;30.55;;;;;;;;;;5118248;28;20146;-62
2021/11/27 05:37:58;;;;;;;165.70;31.17;;;;;;;;;;5119394;28;20367;-62
2021/11/27 05:40:24;;;;;;;181.07;31.30;;;;;;;;;;5109339;28;20130;-62
2021/11/27 05:42:50;;;;;;;148.82;30.42;;;;;;;;;;5112295;28;20074;-62
2021/11/27 05:45:16;;;;;;;157.05;31.05;;;;;;;;;;5103912;28;20103;-62
2021/11/27 05:47:43;;;;;;;134.00;28.77;;;;;;;;;;5100991;28;20079;-62
2021/11/27 05:50:09;;;;;;;170.60;30.88;;;;;;;;;;5096101;28;20032;-62
2021/11/27 05:52:36;;;;;;;141.02;29.13;;;;;;;;;;5104026;28;20131;-62
2021/11/27 05:55:02;;;;;;;146.27;29.13;;;;;;;;;;5093469;28;20035;-62
2021/11/27 05:57:28;;;;;;;116.25;29.10;;;;;;;;;;5107831;28;20043;-62
2021/11/27 05:59:54;;;;;;;126.68;29.17;;;;;;;;;;5114349;28;20039;-62
2021/11/27 06:02:21;;;;;;;154.15;30.50;;;;;;;;;;5101823;28;20122;-62
2021/11/27 06:04:50;;;;;;;150.73;30.75;;;;;;;;;;5106069;28;20093;-62
2021/11/27 06:07:16;;;;;;;127.75;29.77;;;;;;;;;;5103836;28;21245;-62
2021/11/27 06:09:42;;;;;;;134.27;29.50;;;;;;;;;;5091311;28;20066;-62
2021/11/27 06:12:08;;;;;;;145.05;30.48;;;;;;;;;;5109461;28;20043;-62
2021/11/27 06:14:35;;;;;;;140.63;30.85;;;;;;;;;;5112181;27;20135;-62
2021/11/27 06:17:03;;;;;;;141.60;29.20;;;;;;;;;;5122960;27;20191;-62
2021/11/27 06:19:29;;;;;;;137.65;28.42;;;;;;;;;;5112152;28;20092;-62
2021/11/27 06:21:55;;;;;;;169.68;30.75;;;;;;;;;;5112529;27;20043;-62
2021/11/27 06:24:21;;;;;;;155.23;29.48;;;;;;;;;;5114388;27;20520;-62
2021/11/27 06:26:48;;;;;;;130.43;28.63;;;;;;;;;;5120472;27;20517;-62
2021/11/27 06:29:14;;;;;;;135.60;28.25;;;;;;;;;;5111150;27;20343;-62
2021/11/27 06:31:40;;;;;;;194.43;31.35;;;;;;;;;;5114724;27;20036;-62
2021/11/27 06:34:06;;;;;;;199.27;30.83;;;;;;;;;;5120121;27;20047;-62
2021/11/27 06:36:32;;;;;;;112.07;25.75;;;;;;;;;;5104150;27;20077;-62
2021/11/27 06:38:59;;;;;;;211.63;31.70;;;;;;;;;;5106445;27;20042;-62
2021/11/27 06:41:25;;;;;;;232.23;31.10;;;;;;;;;;5129053;27;20048;-62
2021/11/27 06:43:51;;;;;;;249.95;32.83;;;;;;;;;;5125356;27;20091;-62
2021/11/27 06:46:17;;;;;;;140.30;28.55;;;;;;;;;;5122951;27;20412;-62
2021/11/27 06:48:44;;;;;;;142.07;27.52;;;;;;;;;;5112190;27;20424;-62
2021/11/27 06:51:12;;;;;;;134.07;27.90;;;;;;;;;;5109996;27;20521;-62
2021/11/27 06:53:38;;;;;;;111.78;26.52;;;;;;;;;;5092986;27;20036;-62
2021/11/27 06:56:04;;;;;;;188.25;27.65;;;;;;;;;;5092157;27;20039;-62
2021/11/27 06:58:31;;;;;;;135.68;27.52;;;;;;;;;;5121096;27;20498;-62
2021/11/27 07:00:57;;;;;;;124.45;27.27;;;;;;;;;;5099830;27;20043;-62
2021/11/27 07:03:23;;;;;;;119.47;27.77;;;;;;;;;;5098787;27;20130;-62
2021/11/27 07:05:49;;;;;;;136.48;28.15;;;;;;;;;;5118944;27;20110;-62
2021/11/27 07:08:16;;;;;;;109.43;28.27;;;;;;;;;;5101053;27;20044;-62
2021/11/27 07:10:43;;;;;;;150.30;27.70;;;;;;;;;;5089853;27;20210;-62
2021/11/27 07:13:10;;;;;;;161.20;29.70;;;;;;;;;;5113340;27;20074;-62
2021/11/27 07:15:37;;;;;;;132.35;29.63;;;;;;;;;;5095705;27;20047;-62
2021/11/27 07:18:03;;;;;;;137.35;30.65;;;;;;;;;;5109265;27;20424;-62
2021/11/27 07:20:29;;;;;;;146.20;29.40;;;;;;;;;;5109469;27;20028;-62
2021/11/27 07:22:55;;;;;;;162.52;32.30;;;;;;;;;;5109899;27;20032;-62
2021/11/27 07:25:21;;;;;;;181.57;32.45;;;;;;;;;;5112571;27;20044;-62
2021/11/27 07:27:48;;;;;;;166.60;32.58;;;;;;;;;;5104963;27;20052;-63
2021/11/27 07:30:14;;;;;;;154.60;32.67;;;;;;;;;;5121304;27;20054;-63
2021/11/27 07:32:40;;;;;;;167.68;32.45;;;;;;;;;;5113016;27;20035;-63
2021/11/27 07:35:07;;;;;;;173.82;33.33;;;;;;;;;;5114430;27;20180;-63
2021/11/27 07:37:33;;;;;;;187.60;34.00;;;;;;;;;;5104492;27;20055;-63
2021/11/27 07:39:59;;;;;;;151.68;31.42;;;;;;;;;;5109354;27;20398;-63
2021/11/27 07:42:25;;;;;;;91.95;27.83;;;;;;;;;;5107397;27;20460;-63
2021/11/27 07:44:52;;;;;;;96.57;29.17;;;;;;;;;;5105698;27;20093;-63
2021/11/27 07:47:18;;;;;;;178.07;34.35;;;;;;;;;;5108323;27;20411;-63
2021/11/27 07:49:44;;;;;;;132.18;32.58;;;;;;;;;;5108227;27;20131;-63
2021/11/27 07:52:10;;;;;;;131.57;30.70;;;;;;;;;;5109906;27;20089;-63
2021/11/27 07:54:36;;;;;;;153.38;33.15;;;;;;;;;;5110383;27;20034;-63
2021/11/27 07:57:03;;;;;;;170.43;37.78;;;;;;;;;;5105564;27;20079;-63
2021/11/27 07:59:29;;;;;;;132.93;35.60;;;;;;;;;;5112286;27;20051;-63
2021/11/27 08:01:56;;;;;;;113.45;34.10;;;;;;;;;;5103107;27;20094;-63
2021/11/27 08:04:22;;;;;;;168.63;38.25;;;;;;;;;;5104179;27;20504;-63
2021/11/27 08:06:48;;;;;;;147.77;35.67;;;;;;;;;;5080020;28;20488;-63
2021/11/27 08:09:15;;;;;;;200.73;37.75;;;;;;;;;;5113731;27;20399;-63
2021/11/27 08:11:41;;;;;;;146.88;34.10;;;;;;;;;;5119702;27;20555;-63
2021/11/27 08:14:07;;;;;;;134.45;34.03;;;;;;;;;;5109047;27;20123;-63
2021/11/27 08:16:33;;;;;;;164.88;34.60;;;;;;;;;;5107703;27;20128;-63
2021/11/27 08:18:59;;;;;;;121.57;31.23;;;;;;;;;;5103772;28;20495;-63
2021/11/27 08:21:26;;;;;;;140.50;31.95;;;;;;;;;;5075146;28;20055;-63
2021/11/27 08:23:52;;;;;;;142.10;33.15;;;;;;;;;;5096104;28;20044;-63
2021/11/27 08:26:18;;;;;;;140.48;32.05;;;;;;;;;;5098721;28;20039;-63
2021/11/27 08:28:44;;;;;;;135.35;31.73;;;;;;;;;;5099708;28;20497;-63
2021/11/27 08:31:11;;;;;;;124.60;31.80;;;;;;;;;;5105207;27;20112;-62
2021/11/27 08:33:37;;;;;;;145.18;31.70;;;;;;;;;;5108174;27;20185;-64
2021/11/27 08:36:03;;;;;;;143.65;32.88;;;;;;;;;;5108040;27;20603;-63
2021/11/27 08:38:30;;;;;;;140.30;33.88;;;;;;;;;;5090801;28;20136;-63
2021/11/27 08:40:57;;;;;;;154.98;34.67;;;;;;;;;;5108436;27;20042;-63
2021/11/27 08:43:24;;;;;;;119.93;32.00;;;;;;;;;;5087739;28;20114;-63
2021/11/27 08:45:50;;;;;;;140.63;31.63;;;;;;;;;;5107085;27;20061;-63
2021/11/27 08:48:16;;;;;;;147.25;32.95;;;;;;;;;;5108783;27;20043;-62
2021/11/27 08:50:43;;;;;;;133.20;32.40;;;;;;;;;;5112582;27;20127;-65
2021/11/27 08:53:10;;;;;;;113.88;30.60;;;;;;;;;;5099249;27;20047;-65
2021/11/27 08:55:36;;;;;;;110.18;31.75;;;;;;;;;;5107330;28;20386;-64
2021/11/27 08:58:02;;;;;;;101.15;30.83;;;;;;;;;;5079200;28;20075;-63
2021/11/27 09:00:28;;;;;;;92.88;28.02;;;;;;;;;;5106061;27;20148;-63
2021/11/27 09:02:57;;;;;;;78.93;26.50;;;;;;;;;;5103926;27;20130;-63
2021/11/27 09:05:23;;;;;;;92.60;28.42;;;;;;;;;;5103629;27;20054;-63
2021/11/27 09:07:50;;;;;;;91.75;28.63;;;;;;;;;;5108280;27;20048;-63
2021/11/27 09:10:16;;;;;;;81.00;27.65;;;;;;;;;;5105915;27;20066;-64
2021/11/27 09:12:42;;;;;;;66.25;25.60;;;;;;;;;;5102474;27;20055;-62
2021/11/27 09:15:09;;;;;;;90.82;27.77;;;;;;;;;;5109636;28;20043;-63
2021/11/27 09:17:35;;;;;;;79.45;25.17;;;;;;;;;;5091812;28;20058;-63
2021/11/27 09:20:02;;;;;;;68.30;25.02;;;;;;;;;;5109860;27;20055;-63
2021/11/27 09:22:28;;;;;;;71.45;24.30;;;;;;;;;;5111245;27;20032;-63
2021/11/27 09:24:55;;;;;;;66.20;24.67;;;;;;;;;;5107748;27;20142;-63
2021/11/27 09:27:21;;;;;;;73.22;25.15;;;;;;;;;;5105815;28;20062;-62
2021/11/27 09:29:47;;;;;;;66.45;24.60;;;;;;;;;;5109334;27;20042;-62
2021/11/27 09:32:15;;;;;;;62.72;24.30;;;;;;;;;;5115671;27;20115;-63
2021/11/27 09:34:43;;;;;;;65.47;23.77;;;;;;;;;;5086639;27;20052;-63
2021/11/27 09:37:13;;;;;;;75.25;25.48;;;;;;;;;;5095554;28;20035;-63
2021/11/27 09:39:41;;;;;;;72.38;25.80;;;;;;;;;;5114016;28;20444;-63
2021/11/27 09:42:08;;;;;;;70.72;24.92;;;;;;;;;;5107225;28;20039;-63
2021/11/27 09:44:35;;;;;;;85.95;27.40;;;;;;;;;;5107859;28;20086;-63
2021/11/27 09:47:03;;;;;;;75.45;25.48;;;;;;;;;;5109829;28;20067;-63
2021/11/27 09:49:30;;;;;;;79.28;26.58;;;;;;;;;;5100124;28;20118;-63
2021/11/27 09:51:56;;;;;;;75.68;25.73;;;;;;;;;;5099232;28;20032;-63
2021/11/27 09:54:23;;;;;;;74.63;26.48;;;;;;;;;;5108792;27;20464;-63
2021/11/27 09:56:52;;;;;;;71.88;25.15;;;;;;;;;;5103909;27;20398;-63
2021/11/27 09:59:19;;;;;;;80.50;28.20;;;;;;;;;;5102815;27;20117;-62
2021/11/27 10:01:50;;;;;;;84.22;27.92;;;;;;;;;;5103908;27;20032;-63
2021/11/27 10:04:17;;;;;;;70.07;25.90;;;;;;;;;;5107157;27;20031;-62
2021/11/27 10:06:45;;;;;;;72.18;26.30;;;;;;;;;;5116152;27;20043;-63
2021/11/27 10:09:13;;;;;;;78.22;27.73;;;;;;;;;;5117133;27;20035;-63
2021/11/27 10:11:39;;;;;;;86.60;28.08;;;;;;;;;;5111249;27;20052;-63
2021/11/27 10:14:07;;;;;;;76.65;26.73;;;;;;;;;;5077763;28;20057;-63
2021/11/27 10:16:37;;;;;;;70.18;25.60;;;;;;;;;;5104751;28;20088;-62
2021/11/27 10:19:10;;;;;;;67.95;25.58;;;;;;;;;;5104726;28;20122;-63
2021/11/27 10:21:38;;;;;;;84.70;25.60;;;;;;;;;;5104022;27;20036;-62
2021/11/27 10:24:16;;;;;;;79.75;28.02;;;;;;;;;;5111493;27;20051;-63
2021/11/27 10:26:43;;;;;;;100.50;28.80;;;;;;;;;;5112496;27;20082;-63
2021/11/27 10:29:12;;;;;;;81.57;26.73;;;;;;;;;;5094328;27;20054;-63
2021/11/27 10:31:38;;;;;;;75.53;24.55;;;;;;;;;;5111246;27;20051;-62
2021/11/27 10:34:05;;;;;;;75.60;24.27;;;;;;;;;;5087371;28;20049;-62
2021/11/27 10:36:31;;;;;;;61.40;21.70;;;;;;;;;;5114638;27;20036;-62
2021/11/27 10:39:04;;;;;;;58.67;20.65;;;;;;;;;;5120896;27;20085;-62
2021/11/27 10:41:36;;;;;;;41.00;19.23;;;;;;;;;;5116753;27;20123;-63
2021/11/27 10:44:04;;;;;;;51.60;19.48;;;;;;;;;;5112771;27;20887;-62
2021/11/27 10:46:31;;;;;;;51.05;19.15;;;;;;;;;;5108020;27;20115;-69
2021/11/27 10:48:58;;;;;;;57.85;21.13;;;;;;;;;;5094296;27;20074;-63
2021/11/27 10:51:24;;;;;;;51.60;18.88;;;;;;;;;;5107614;27;20126;-62
2021/11/27 10:53:55;;;;;;;44.30;18.88;;;;;;;;;;5107337;27;20036;-63
2021/11/27 10:56:21;;;;;;;50.88;19.50;;;;;;;;;;5109685;27;20039;-63
2021/11/27 10:59:05;;;;;;;52.33;19.55;;;;;;;;;;5106854;27;20085;-62
2021/11/27 11:01:31;;;;;;;57.45;19.98;;;;;;;;;;5110028;27;20051;-62
2021/11/27 11:04:14;;;;;;;46.42;18.38;;;;;;;;;;5111644;27;20094;-63
2021/11/27 11:06:40;;;;;;;52.53;18.65;;;;;;;;;;5107952;27;20042;-62
2021/11/27 11:09:07;;;;;;;50.42;19.35;;;;;;;;;;5105240;27;20046;-63
2021/11/27 11:11:33;;;;;;;54.17;18.90;;;;;;;;;;5110356;27;20516;-62
2021/11/27 11:14:00;;;;;;;43.80;17.77;;;;;;;;;;5095137;27;20503;-62
2021/11/27 11:16:29;;;;;;;51.05;18.90;;;;;;;;;;5114745;27;20474;-62
2021/11/27 11:19:12;;;;;;;49.70;17.67;;;;;;;;;;5096563;27;20129;-63
2021/11/27 11:21:38;;;;;;;55.08;18.52;;;;;;;;;;5104513;27;20040;-63
2021/11/27 11:24:26;;;;;;;47.28;18.08;;;;;;;;;;5106372;27;20071;-63
2021/11/27 11:26:54;;;;;;;39.22;15.07;;;;;;;;;;5087060;27;20157;-61
2021/11/27 11:29:20;;;;;;;41.75;15.80;;;;;;;;;;5112035;27;20046;-62
2021/11/27 11:31:47;;;;;;;40.83;15.50;;;;;;;;;;5092925;27;20515;-63
2021/11/27 11:34:13;;;;;;;27.27;12.50;;;;;;;;;;5101417;27;20403;-63
2021/11/27 11:36:39;;;;;;;30.25;13.27;;;;;;;;;;5091835;28;20067;-63
2021/11/27 11:39:05;;;;;;;29.52;12.38;;;;;;;;;;5105984;27;20050;-63
2021/11/27 11:41:32;;;;;;;31.55;12.48;;;;;;;;;;5090009;27;20173;-63
2021/11/27 11:43:58;;;;;;;30.45;10.35;;;;;;;;;;5105003;27;20468;-63
2021/11/27 11:46:24;;;;;;;21.90;9.55;;;;;;;;;;5090111;27;20536;-63
2021/11/27 11:48:53;;;;;;;15.52;6.32;;;;;;;;;;5118830;27;20093;-63
2021/11/27 11:51:31;;;;;;;13.45;6.30;;;;;;;;;;5101983;27;20137;-63
2021/11/27 11:53:58;;;;;;;15.38;6.57;;;;;;;;;;5119416;27;20101;-63
2021/11/27 11:56:36;;;;;;;9.60;5.82;;;;;;;;;;5111713;27;20051;-63
2021/11/27 11:59:21;;;;;;;8.65;5.70;;;;;;;;;;5116276;27;20051;-63
2021/11/27 12:02:05;;;;;;;9.10;6.03;;;;;;;;;;5097130;27;20469;-63
2021/11/27 12:04:32;;;;;;;11.60;5.85;;;;;;;;;;5124460;27;20106;-63
2021/11/27 12:07:07;;;;;;;8.48;5.88;;;;;;;;;;5117861;27;20489;-63
2021/11/27 12:09:33;;;;;;;13.18;6.18;;;;;;;;;;5097498;28;20432;-63
2021/11/27 12:12:00;;;;;;;13.07;7.30;;;;;;;;;;5110873;27;20036;-63
2021/11/27 12:14:28;;;;;;;9.95;6.50;;;;;;;;;;5093909;27;20046;-62
2021/11/27 12:17:14;;;;;;;12.80;6.90;;;;;;;;;;5108182;27;20112;-62
2021/11/27 12:19:42;;;;;;;9.80;6.63;;;;;;;;;;5111737;27;20728;-63
2021/11/27 12:22:21;;;;;;;9.80;5.70;;;;;;;;;;5110166;27;20089;-63
2021/11/27 12:25:06;;;;;;;10.55;5.75;;;;;;;;;;5091384;28;20052;-63
2021/11/27 12:27:33;;;;;;;8.73;5.55;;;;;;;;;;5107859;27;20478;-63
2021/11/27 12:30:06;;;;;;;7.30;4.70;;;;;;;;;;5102371;27;20040;-63
2021/11/27 12:32:37;;;;;;;11.07;4.40;;;;;;;;;;5094623;28;20047;-63
2021/11/27 12:35:23;;;;;;;5.47;3.78;;;;;;;;;;5108342;28;20539;-63
2021/11/27 12:37:49;;;;;;;7.93;4.90;;;;;;;;;;5098667;28;20496;-62
2021/11/27 12:40:34;;;;;;;4.78;2.75;;;;;;;;;;5104284;28;20073;-63
2021/11/27 12:43:08;;;;;;;8.23;3.47;;;;;;;;;;5102317;28;20052;-62
2021/11/27 12:45:36;;;;;;;7.60;4.20;;;;;;;;;;5103216;28;20396;-62
2021/11/27 12:48:22;;;;;;;8.68;3.95;;;;;;;;;;5101014;28;20050;-62
2021/11/27 12:51:07;;;;;;;6.55;3.95;;;;;;;;;;5105629;28;20062;-62
2021/11/27 12:53:33;;;;;;;7.43;4.22;;;;;;;;;;5103297;28;20032;-62
2021/11/27 12:56:00;;;;;;;9.27;4.93;;;;;;;;;;5111682;28;20184;-62
2021/11/27 12:58:28;;;;;;;8.05;5.85;;;;;;;;;;5109340;28;20043;-62
2021/11/27 13:00:54;;;;;;;8.20;4.38;;;;;;;;;;5105810;27;20066;-62
2021/11/27 13:03:21;;;;;;;12.73;5.20;;;;;;;;;;5096113;28;20141;-61
2021/11/27 13:05:47;;;;;;;7.45;5.00;;;;;;;;;;5101559;28;20089;-62
2021/11/27 13:08:25;;;;;;;13.18;6.35;;;;;;;;;;5086180;28;20043;-62
2021/11/27 13:10:53;;;;;;;7.05;5.38;;;;;;;;;;5104534;27;20090;-62
2021/11/27 13:13:21;;;;;;;7.95;3.90;;;;;;;;;;5107000;27;20048;-62
2021/11/27 13:15:49;;;;;;;7.93;4.18;;;;;;;;;;5104565;27;20102;-65
2021/11/27 13:18:17;;;;;;;10.32;4.57;;;;;;;;;;5105856;27;20113;-63
2021/11/27 13:20:45;;;;;;;8.68;4.60;;;;;;;;;;5088043;28;20115;-63
2021/11/27 13:23:12;;;;;;;6.38;3.95;;;;;;;;;;5106956;27;20040;-64
2021/11/27 13:25:39;;;;;;;9.55;4.50;;;;;;;;;;5108828;27;20747;-64
2021/11/27 13:28:06;;;;;;;12.82;5.97;;;;;;;;;;5108290;27;20035;-64
2021/11/27 13:30:37;;;;;;;10.70;6.40;;;;;;;;;;5109592;27;20127;-63
2021/11/27 13:33:03;;;;;;;9.02;5.75;;;;;;;;;;5103629;28;20052;-64
2021/11/27 13:35:35;;;;;;;11.02;5.50;;;;;;;;;;5104533;27;20039;-65
2021/11/27 13:38:01;;;;;;;11.65;6.57;;;;;;;;;;5100209;28;20459;-64
2021/11/27 13:40:29;;;;;;;8.68;4.65;;;;;;;;;;5104327;28;20059;-64
2021/11/27 13:43:08;;;;;;;13.13;8.23;;;;;;;;;;5103459;28;20047;-63
2021/11/27 13:45:34;;;;;;;12.68;8.48;;;;;;;;;;5105394;28;20166;-64
2021/11/27 13:48:02;;;;;;;11.07;6.90;;;;;;;;;;5105412;28;20093;-63
2021/11/27 13:50:29;;;;;;;9.80;6.53;;;;;;;;;;5087981;28;20079;-64
2021/11/27 13:52:56;;;;;;;14.70;7.57;;;;;;;;;;5102756;28;20039;-63
2021/11/27 13:55:25;;;;;;;9.57;6.55;;;;;;;;;;5107793;28;20082;-63
2021/11/27 13:57:52;;;;;;;12.00;8.40;;;;;;;;;;5089784;28;20078;-63
2021/11/27 14:00:20;;;;;;;12.60;8.60;;;;;;;;;;5106183;28;20090;-64
2021/11/27 14:02:47;;;;;;;14.85;8.57;;;;;;;;;;5096403;28;20417;-63
2021/11/27 14:05:13;;;;;;;16.08;9.52;;;;;;;;;;5116118;28;20039;-63
2021/11/27 14:07:41;;;;;;;16.10;10.00;;;;;;;;;;5113881;28;20042;-63
2021/11/27 14:10:15;;;;;;;15.02;10.05;;;;;;;;;;5095061;28;20105;-63
2021/11/27 14:12:47;;;;;;;14.85;9.77;;;;;;;;;;5109004;28;20075;-63
2021/11/27 14:15:15;;;;;;;15.75;11.70;;;;;;;;;;5108128;28;20039;-63